createdAt,value
2019-01-10T00:00:12.883Z,90.01
2019-01-10T00:01:12.869Z,90.1
2019-01-10T00:02:12.850Z,90.1
2019-01-10T00:03:12.836Z,90.1
2019-01-10T00:04:12.820Z,89.82
2019-01-10T00:05:12.866Z,90.1
2019-01-10T00:06:12.792Z,89.91
2019-01-10T00:07:12.777Z,89.91
2019-01-10T00:08:12.761Z,89.91
2019-01-10T00:09:12.746Z,90.1
2019-01-10T00:10:13.982Z,90.01
2019-01-10T00:11:12.715Z,90.1
2019-01-10T00:12:12.701Z,89.82
2019-01-10T00:13:12.684Z,89.91
2019-01-10T00:14:12.674Z,89.91
2019-01-10T00:15:12.664Z,90.1
2019-01-10T00:16:12.640Z,90.01
2019-01-10T00:17:12.625Z,90.1
2019-01-10T00:18:12.609Z,89.91
2019-01-10T00:19:12.599Z,90.1
2019-01-10T00:20:12.584Z,89.91
2019-01-10T00:21:12.567Z,90.1
2019-01-10T00:22:12.547Z,90.1
2019-01-10T00:23:12.536Z,90.01
2019-01-10T00:24:12.517Z,89.91
2019-01-10T00:25:12.512Z,90.01
2019-01-10T00:26:12.487Z,90.01
2019-01-10T00:27:12.474Z,90.01
2019-01-10T00:28:12.456Z,90.1
2019-01-10T00:29:12.441Z,90.01
2019-01-10T00:30:12.427Z,90.2
2019-01-10T00:31:12.411Z,89.91
2019-01-10T00:32:12.395Z,90.01
2019-01-10T00:33:12.382Z,90.29
2019-01-10T00:34:12.365Z,90.58
2019-01-10T00:35:12.348Z,90.01
2019-01-10T00:36:12.334Z,90.48
2019-01-10T00:37:12.322Z,90.2
2019-01-10T00:38:12.316Z,90.29
2019-01-10T00:39:12.287Z,90.48
2019-01-10T00:40:12.274Z,90.29
2019-01-10T00:41:12.264Z,90.48
2019-01-10T00:42:12.241Z,90.48
2019-01-10T00:43:12.228Z,90.39
2019-01-10T00:44:12.212Z,90.39
2019-01-10T00:45:12.207Z,90.39
2019-01-10T00:46:12.180Z,90.58
2019-01-10T00:47:12.167Z,90.53
2019-01-10T00:48:12.156Z,90.58
2019-01-10T00:49:12.135Z,90.58
2019-01-10T00:50:12.121Z,90.39
2019-01-10T00:51:12.101Z,90.58
2019-01-10T00:52:12.088Z,90.29
2019-01-10T00:53:12.072Z,90.77
2019-01-10T00:54:12.060Z,90.77
2019-01-10T00:55:12.040Z,90.67
2019-01-10T00:56:12.026Z,90.77
2019-01-10T00:57:12.012Z,91.05
2019-01-10T00:58:11.994Z,90.77
2019-01-10T00:59:11.982Z,90.67
2019-01-10T01:00:11.964Z,90.67
2019-01-10T01:01:11.949Z,91.05
2019-01-10T01:02:11.933Z,90.86
2019-01-10T01:03:11.920Z,90.77
2019-01-10T01:04:11.902Z,90.67
2019-01-10T01:05:11.886Z,91.14
2019-01-10T01:06:11.870Z,91.05
2019-01-10T01:07:11.856Z,91.1
2019-01-10T01:08:11.838Z,90.63
2019-01-10T01:09:11.835Z,90.81
2019-01-10T01:10:11.809Z,90.91
2019-01-10T01:11:11.798Z,90.67
2019-01-10T01:12:11.782Z,90.95
2019-01-10T01:13:11.759Z,90.77
2019-01-10T01:14:11.748Z,90.39
2019-01-10T01:15:11.731Z,90.63
2019-01-10T01:16:11.715Z,90.63
2019-01-10T01:17:11.699Z,90.86
2019-01-10T01:18:11.684Z,91.29
2019-01-10T01:19:11.668Z,91.29
2019-01-10T01:20:11.655Z,91.52
2019-01-10T01:21:11.640Z,91.57
2019-01-10T01:22:11.625Z,91.71
2019-01-10T01:23:11.607Z,91.67
2019-01-10T01:24:11.591Z,91.48
2019-01-10T01:25:11.612Z,91.48
2019-01-10T01:26:11.564Z,91.67
2019-01-10T01:27:11.551Z,91.62
2019-01-10T01:28:11.529Z,91.76
2019-01-10T01:29:11.513Z,91.81
2019-01-10T01:30:11.497Z,91.67
2019-01-10T01:31:11.482Z,91.48
2019-01-10T01:32:11.466Z,91.76
2019-01-10T01:33:11.457Z,91.57
2019-01-10T01:34:11.436Z,91.9
2019-01-10T01:35:11.424Z,91.86
2019-01-10T01:36:11.404Z,91.57
2019-01-10T01:37:11.426Z,91.57
2019-01-10T01:38:11.373Z,91.57
2019-01-10T01:39:11.359Z,91.67
2019-01-10T01:40:11.408Z,91.9
2019-01-10T01:41:11.325Z,91.76
2019-01-10T01:42:11.311Z,91.57
2019-01-10T01:43:11.317Z,91.57
2019-01-10T01:44:11.279Z,91.71
2019-01-10T01:45:11.261Z,91.76
2019-01-10T01:46:11.249Z,91.86
2019-01-10T01:47:11.234Z,91.62
2019-01-10T01:48:11.238Z,91.76
2019-01-10T01:49:11.202Z,91.76
2019-01-10T01:50:11.183Z,91.67
2019-01-10T01:51:11.171Z,91.48
2019-01-10T01:52:11.244Z,91.67
2019-01-10T01:53:11.146Z,91.57
2019-01-10T01:54:11.123Z,91.67
2019-01-10T01:55:11.108Z,91.48
2019-01-10T01:56:11.093Z,91.86
2019-01-10T01:57:11.082Z,91.57
2019-01-10T01:58:11.059Z,91.48
2019-01-10T01:59:11.045Z,91.67
2019-01-10T02:00:11.028Z,91.67
2019-01-10T02:01:11.020Z,91.67
2019-01-10T02:02:10.995Z,91.67
2019-01-10T02:03:10.986Z,91.67
2019-01-10T02:04:10.969Z,91.76
2019-01-10T02:05:10.952Z,91.57
2019-01-10T02:06:10.935Z,91.67
2019-01-10T02:07:10.919Z,91.67
2019-01-10T02:08:10.903Z,91.38
2019-01-10T02:09:10.888Z,90.63
2019-01-10T02:10:10.870Z,90.63
2019-01-10T02:11:10.871Z,90.44
2019-01-10T02:12:10.845Z,90.81
2019-01-10T02:13:19.197Z,90.44
2019-01-10T02:14:10.811Z,90.91
2019-01-10T02:15:10.795Z,90.63
2019-01-10T02:16:10.781Z,90.63
2019-01-10T02:17:10.765Z,90.81
2019-01-10T02:18:10.750Z,91.19
2019-01-10T02:19:10.731Z,91.38
2019-01-10T02:20:10.716Z,91.57
2019-01-10T02:21:10.702Z,91.67
2019-01-10T02:22:10.684Z,91.67
2019-01-10T02:23:10.669Z,91.57
2019-01-10T02:24:10.655Z,91.67
2019-01-10T02:25:10.702Z,90.72
2019-01-10T02:26:10.626Z,91.29
2019-01-10T02:27:10.607Z,91.1
2019-01-10T02:28:10.590Z,91
2019-01-10T02:29:10.572Z,90.63
2019-01-10T02:30:10.565Z,91.1
2019-01-10T02:31:10.545Z,90.63
2019-01-10T02:32:10.526Z,90.63
2019-01-10T02:33:10.513Z,90.81
2019-01-10T02:34:10.495Z,90.63
2019-01-10T02:35:10.484Z,91
2019-01-10T02:36:10.466Z,90.63
2019-01-10T02:37:10.450Z,90.81
2019-01-10T02:38:10.440Z,91.29
2019-01-10T02:39:10.421Z,91.1
2019-01-10T02:40:10.404Z,91.1
2019-01-10T02:41:10.395Z,90.81
2019-01-10T02:42:10.376Z,91.29
2019-01-10T02:43:10.365Z,91.29
2019-01-10T02:44:10.349Z,91.1
2019-01-10T02:45:10.324Z,91.29
2019-01-10T02:46:10.306Z,91.48
2019-01-10T02:47:10.288Z,91.48
2019-01-10T02:48:10.273Z,91.48
2019-01-10T02:49:10.260Z,91.48
2019-01-10T02:50:10.246Z,91.1
2019-01-10T02:51:10.234Z,91
2019-01-10T02:52:10.225Z,91.38
2019-01-10T02:53:10.197Z,90.63
2019-01-10T02:54:10.183Z,90.63
2019-01-10T02:55:10.165Z,90.63
2019-01-10T02:56:10.150Z,90.81
2019-01-10T02:57:10.136Z,90.44
2019-01-10T02:58:10.249Z,90.44
2019-01-10T02:59:10.110Z,90.44
2019-01-10T03:00:10.089Z,90.81
2019-01-10T03:01:10.070Z,90.44
2019-01-10T03:02:10.064Z,90.91
2019-01-10T03:03:10.044Z,91
2019-01-10T03:04:10.028Z,90.81
2019-01-10T03:05:10.016Z,90.81
2019-01-10T03:06:09.993Z,90.53
2019-01-10T03:07:09.977Z,90.63
2019-01-10T03:08:09.967Z,91
2019-01-10T03:09:09.948Z,90.91
2019-01-10T03:10:09.930Z,90.63
2019-01-10T03:11:09.914Z,90.72
2019-01-10T03:12:09.896Z,90.63
2019-01-10T03:13:09.879Z,90.63
2019-01-10T03:14:09.871Z,91.1
2019-01-10T03:15:09.853Z,91
2019-01-10T03:16:09.838Z,91.1
2019-01-10T03:17:09.817Z,91
2019-01-10T03:18:09.803Z,91
2019-01-10T03:19:09.784Z,90.53
2019-01-10T03:20:09.769Z,90.72
2019-01-10T03:21:09.757Z,91
2019-01-10T03:22:09.736Z,90.63
2019-01-10T03:23:09.723Z,90.44
2019-01-10T03:24:09.705Z,90.44
2019-01-10T03:25:09.690Z,90.63
2019-01-10T03:26:09.675Z,90.81
2019-01-10T03:27:09.669Z,91
2019-01-10T03:28:09.644Z,91
2019-01-10T03:29:11.521Z,90.72
2019-01-10T03:30:09.613Z,91.1
2019-01-10T03:31:09.604Z,91
2019-01-10T03:32:09.605Z,91
2019-01-10T03:33:09.580Z,91
2019-01-10T03:34:09.546Z,91
2019-01-10T03:35:09.530Z,90.81
2019-01-10T03:36:09.517Z,91
2019-01-10T03:37:09.498Z,91.1
2019-01-10T03:38:09.484Z,90.53
2019-01-10T03:39:09.465Z,91
2019-01-10T03:40:09.452Z,90.91
2019-01-10T03:41:09.434Z,90.63
2019-01-10T03:42:09.419Z,90.72
2019-01-10T03:43:09.411Z,90.63
2019-01-10T03:44:09.388Z,91.1
2019-01-10T03:45:09.370Z,90.63
2019-01-10T03:46:09.358Z,91
2019-01-10T03:47:09.361Z,90.81
2019-01-10T03:48:09.326Z,90.81
2019-01-10T03:49:09.313Z,91
2019-01-10T03:50:09.291Z,91.1
2019-01-10T03:51:09.277Z,90.53
2019-01-10T03:52:09.260Z,91.1
2019-01-10T03:53:09.246Z,91.1
2019-01-10T03:54:09.227Z,90.91
2019-01-10T03:55:09.212Z,91
2019-01-10T03:56:08.956Z,91
2019-01-10T03:57:09.179Z,90.81
2019-01-10T03:58:09.164Z,91.19
2019-01-10T03:59:09.157Z,91.1
2019-01-10T04:00:09.131Z,90.81
2019-01-10T04:01:09.118Z,91.19
2019-01-10T04:02:09.101Z,90.72
2019-01-10T04:03:09.086Z,90.81
2019-01-10T04:04:09.071Z,90.72
2019-01-10T04:05:09.054Z,90.91
2019-01-10T04:06:09.039Z,90.63
2019-01-10T04:07:09.019Z,90.63
2019-01-10T04:08:09.003Z,90.72
2019-01-10T04:09:09.000Z,90.63
2019-01-10T04:10:08.973Z,91
2019-01-10T04:11:08.960Z,90.81
2019-01-10T04:12:08.942Z,90.72
2019-01-10T04:13:08.928Z,90.53
2019-01-10T04:14:08.910Z,90.63
2019-01-10T04:15:08.893Z,90.72
2019-01-10T04:16:08.880Z,90.72
2019-01-10T04:17:08.863Z,90.91
2019-01-10T04:18:08.978Z,90.91
2019-01-10T04:19:08.826Z,90.91
2019-01-10T04:20:08.819Z,90.91
2019-01-10T04:21:19.325Z,90.72
2019-01-10T04:22:08.790Z,90.63
2019-01-10T04:23:08.768Z,91
2019-01-10T04:24:08.748Z,90.81
2019-01-10T04:25:08.734Z,90.72
2019-01-10T04:26:08.718Z,90.72
2019-01-10T04:27:08.704Z,90.81
2019-01-10T04:28:08.692Z,90.81
2019-01-10T04:29:08.696Z,90.53
2019-01-10T04:30:08.708Z,90.81
2019-01-10T04:31:08.643Z,90.72
2019-01-10T04:32:08.631Z,90.81
2019-01-10T04:33:08.611Z,90.91
2019-01-10T04:34:08.622Z,90.72
2019-01-10T04:35:08.592Z,90.72
2019-01-10T04:36:08.560Z,90.63
2019-01-10T04:37:08.566Z,90.53
2019-01-10T04:38:08.531Z,90.91
2019-01-10T04:39:08.515Z,90.91
2019-01-10T04:40:08.506Z,90.81
2019-01-10T04:41:08.486Z,90.91
2019-01-10T04:42:08.464Z,90.81
2019-01-10T04:43:08.446Z,90.81
2019-01-10T04:44:09.654Z,90.81
2019-01-10T04:45:08.416Z,90.81
2019-01-10T04:46:08.435Z,90.72
2019-01-10T04:47:08.381Z,90.81
2019-01-10T04:48:08.369Z,90.63
2019-01-10T04:49:08.363Z,90.81
2019-01-10T04:50:08.336Z,90.81
2019-01-10T04:51:08.324Z,90.53
2019-01-10T04:52:09.291Z,90.81
2019-01-10T04:53:08.293Z,90.63
2019-01-10T04:54:08.273Z,90.72
2019-01-10T04:55:08.284Z,90.72
2019-01-10T04:56:08.239Z,90.81
2019-01-10T04:57:08.226Z,90.91
2019-01-10T04:58:08.274Z,90.63
2019-01-10T04:59:08.191Z,90.91
2019-01-10T05:00:08.178Z,90.81
2019-01-10T05:01:08.159Z,90.63
2019-01-10T05:02:18.041Z,90.81
2019-01-10T05:03:08.130Z,90.72
2019-01-10T05:04:08.116Z,90.72
2019-01-10T05:05:08.097Z,90.72
2019-01-10T05:06:08.081Z,90.91
2019-01-10T05:07:08.066Z,91
2019-01-10T05:08:08.050Z,90.91
2019-01-10T05:09:08.039Z,90.63
2019-01-10T05:10:08.023Z,90.72
2019-01-10T05:11:08.002Z,90.91
2019-01-10T05:12:07.986Z,90.63
2019-01-10T05:13:07.977Z,91
2019-01-10T05:14:16.123Z,90.63
2019-01-10T05:15:07.938Z,90.72
2019-01-10T05:16:07.921Z,90.81
2019-01-10T05:17:07.907Z,90.81
2019-01-10T05:18:10.452Z,90.81
2019-01-10T05:19:08.014Z,90.91
2019-01-10T05:20:07.859Z,90.91
2019-01-10T05:21:07.842Z,90.81
2019-01-10T05:22:07.827Z,90.72
2019-01-10T05:23:07.808Z,90.81
2019-01-10T05:24:07.795Z,90.72
2019-01-10T05:25:07.778Z,91
2019-01-10T05:26:07.764Z,90.91
2019-01-10T05:27:07.767Z,90.81
2019-01-10T05:28:07.735Z,90.91
2019-01-10T05:29:07.715Z,90.91
2019-01-10T05:30:07.703Z,90.91
2019-01-10T05:31:07.683Z,90.63
2019-01-10T05:32:07.669Z,90.91
2019-01-10T05:33:07.653Z,90.81
2019-01-10T05:34:07.643Z,90.63
2019-01-10T05:35:07.620Z,90.72
2019-01-10T05:36:07.604Z,90.81
2019-01-10T05:37:08.479Z,90.63
2019-01-10T05:38:07.577Z,90.63
2019-01-10T05:39:07.560Z,91
2019-01-10T05:40:07.539Z,91
2019-01-10T05:41:07.539Z,91.1
2019-01-10T05:42:07.513Z,90.72
2019-01-10T05:43:07.545Z,90.91
2019-01-10T05:44:07.479Z,90.91
2019-01-10T05:45:07.462Z,90.63
2019-01-10T05:46:07.448Z,90.91
2019-01-10T05:47:07.431Z,91.1
2019-01-10T05:48:07.418Z,90.72
2019-01-10T05:49:07.400Z,91
2019-01-10T05:50:07.394Z,91
2019-01-10T05:51:07.372Z,90.72
2019-01-10T05:52:07.358Z,91.19
2019-01-10T05:53:07.339Z,90.72
2019-01-10T05:54:07.319Z,90.72
2019-01-10T05:55:07.304Z,90.91
2019-01-10T05:56:15.186Z,90.91
2019-01-10T05:57:07.269Z,90.91
2019-01-10T05:58:07.259Z,91.1
2019-01-10T05:59:07.242Z,91
2019-01-10T06:00:07.227Z,90.81
2019-01-10T06:01:07.211Z,90.81
2019-01-10T06:02:07.194Z,91.1
2019-01-10T06:03:07.177Z,90.91
2019-01-10T06:04:07.166Z,91.19
2019-01-10T06:05:07.147Z,90.91
2019-01-10T06:06:07.131Z,90.72
2019-01-10T06:07:07.114Z,90.53
2019-01-10T06:08:07.101Z,90.72
2019-01-10T06:09:07.081Z,91
2019-01-10T06:10:07.069Z,90.63
2019-01-10T06:11:07.053Z,91.1
2019-01-10T06:12:07.033Z,91.19
2019-01-10T06:13:07.019Z,90.91
2019-01-10T06:14:07.000Z,91
2019-01-10T06:15:06.986Z,90.81
2019-01-10T06:16:06.972Z,91.19
2019-01-10T06:17:06.956Z,91
2019-01-10T06:18:06.942Z,90.91
2019-01-10T06:19:06.923Z,91
2019-01-10T06:20:06.905Z,90.63
2019-01-10T06:21:06.892Z,90.91
2019-01-10T06:22:06.878Z,91.67
2019-01-10T06:23:06.858Z,91.95
2019-01-10T06:24:06.844Z,91.05
2019-01-10T06:25:06.835Z,91.76
2019-01-10T06:26:06.809Z,91.81
2019-01-10T06:27:06.809Z,91.81
2019-01-10T06:28:06.780Z,91.43
2019-01-10T06:29:06.769Z,91.62
2019-01-10T06:30:06.746Z,91.62
2019-01-10T06:31:06.731Z,91.72
2019-01-10T06:32:06.715Z,91.81
2019-01-10T06:33:06.698Z,91.53
2019-01-10T06:34:08.894Z,91.72
2019-01-10T06:35:06.673Z,91.62
2019-01-10T06:36:06.656Z,91.72
2019-01-10T06:37:06.633Z,91.53
2019-01-10T06:38:06.620Z,91.72
2019-01-10T06:39:06.604Z,91.72
2019-01-10T06:40:06.590Z,91.05
2019-01-10T06:41:06.574Z,91.15
2019-01-10T06:42:06.569Z,91.72
2019-01-10T06:43:06.537Z,91.62
2019-01-10T06:44:06.523Z,91.53
2019-01-10T06:45:06.509Z,91.62
2019-01-10T06:46:06.491Z,91.72
2019-01-10T06:47:06.473Z,91.62
2019-01-10T06:48:06.456Z,91.72
2019-01-10T06:49:06.442Z,91.43
2019-01-10T06:50:06.423Z,91.81
2019-01-10T06:51:06.412Z,91.43
2019-01-10T06:52:06.392Z,91.72
2019-01-10T06:53:06.398Z,90.86
2019-01-10T06:54:06.367Z,91.62
2019-01-10T06:55:06.344Z,90.96
2019-01-10T06:56:06.085Z,91.15
2019-01-10T06:57:06.312Z,90.86
2019-01-10T06:58:06.294Z,90.77
2019-01-10T06:59:06.280Z,90.58
2019-01-10T07:00:06.262Z,90.96
2019-01-10T07:01:06.251Z,90.77
2019-01-10T07:02:07.041Z,90.77
2019-01-10T07:03:06.220Z,90.96
2019-01-10T07:04:06.207Z,90.96
2019-01-10T07:05:06.184Z,91.43
2019-01-10T07:06:06.170Z,91.53
2019-01-10T07:07:06.149Z,90.91
2019-01-10T07:08:06.137Z,90.77
2019-01-10T07:09:06.118Z,91.62
2019-01-10T07:10:06.101Z,91.72
2019-01-10T07:11:06.100Z,91.43
2019-01-10T07:12:07.712Z,91.72
2019-01-10T07:13:06.062Z,91.62
2019-01-10T07:14:06.039Z,92.29
2019-01-10T07:15:06.022Z,92
2019-01-10T07:16:06.005Z,91.34
2019-01-10T07:17:05.751Z,91.72
2019-01-10T07:18:05.980Z,91.53
2019-01-10T07:19:05.958Z,91.53
2019-01-10T07:20:05.942Z,91.62
2019-01-10T07:21:05.927Z,91.91
2019-01-10T07:22:06.164Z,91.72
2019-01-10T07:23:05.901Z,91.43
2019-01-10T07:24:05.917Z,91.81
2019-01-10T07:25:05.865Z,91.81
2019-01-10T07:26:05.846Z,91.62
2019-01-10T07:27:05.829Z,91.72
2019-01-10T07:28:05.814Z,91.72
2019-01-10T07:29:05.796Z,91.53
2019-01-10T07:30:05.779Z,91.43
2019-01-10T07:31:05.769Z,91.43
2019-01-10T07:32:05.748Z,91.43
2019-01-10T07:33:05.748Z,91.72
2019-01-10T07:34:05.812Z,91.62
2019-01-10T07:35:05.701Z,91.05
2019-01-10T07:36:05.682Z,91.15
2019-01-10T07:37:15.060Z,91.34
2019-01-10T07:38:05.656Z,91.15
2019-01-10T07:39:05.636Z,91.24
2019-01-10T07:40:05.620Z,91.72
2019-01-10T07:41:05.604Z,91.15
2019-01-10T07:42:05.586Z,91.34
2019-01-10T07:43:05.571Z,91.05
2019-01-10T07:44:05.592Z,91.53
2019-01-10T07:45:05.420Z,91.43
2019-01-10T07:46:05.526Z,90.86
2019-01-10T07:47:05.507Z,91.05
2019-01-10T07:48:05.491Z,91.34
2019-01-10T07:49:05.474Z,90.77
2019-01-10T07:50:05.462Z,90.77
2019-01-10T07:51:05.446Z,90.58
2019-01-10T07:52:05.426Z,90.58
2019-01-10T07:53:05.413Z,90.81
2019-01-10T07:54:05.395Z,90.67
2019-01-10T07:55:05.390Z,90.81
2019-01-10T07:56:05.362Z,90.77
2019-01-10T07:57:05.354Z,90.77
2019-01-10T07:58:05.331Z,91.62
2019-01-10T07:59:05.314Z,91.72
2019-01-10T08:00:05.298Z,90.86
2019-01-10T08:01:05.284Z,90.96
2019-01-10T08:02:05.268Z,90.58
2019-01-10T08:03:05.262Z,90.58
2019-01-10T08:04:05.243Z,90.63
2019-01-10T08:05:05.217Z,91
2019-01-10T08:06:07.057Z,90.81
2019-01-10T08:07:05.186Z,91
2019-01-10T08:08:05.171Z,90.63
2019-01-10T08:09:05.154Z,90.63
2019-01-10T08:10:05.139Z,91
2019-01-10T08:11:05.122Z,91
2019-01-10T08:12:05.106Z,91
2019-01-10T08:13:05.100Z,90.91
2019-01-10T08:14:05.077Z,90.63
2019-01-10T08:15:14.115Z,91
2019-01-10T08:16:05.048Z,91
2019-01-10T08:17:05.030Z,90.63
2019-01-10T08:18:05.016Z,90.72
2019-01-10T08:19:04.997Z,90.81
2019-01-10T08:20:05.035Z,90.81
2019-01-10T08:21:04.969Z,90.91
2019-01-10T08:22:04.952Z,90.81
2019-01-10T08:23:04.935Z,90.81
2019-01-10T08:24:04.920Z,91
2019-01-10T08:25:04.906Z,90.72
2019-01-10T08:26:04.892Z,91.19
2019-01-10T08:27:04.933Z,91
2019-01-10T08:28:04.863Z,91.48
2019-01-10T08:29:04.842Z,90.63
2019-01-10T08:30:04.825Z,90.91
2019-01-10T08:31:04.809Z,91
2019-01-10T08:32:06.570Z,91.1
2019-01-10T08:33:04.777Z,91.19
2019-01-10T08:34:04.766Z,90.81
2019-01-10T08:35:04.754Z,90.91
2019-01-10T08:36:04.733Z,91.95
2019-01-10T08:37:04.716Z,92.8
2019-01-10T08:38:04.701Z,92.24
2019-01-10T08:39:04.443Z,91.38
2019-01-10T08:40:04.672Z,92.99
2019-01-10T08:41:04.655Z,92.76
2019-01-10T08:42:04.641Z,92.9
2019-01-10T08:43:04.628Z,93.27
2019-01-10T08:44:04.609Z,92.9
2019-01-10T08:45:04.714Z,92.8
2019-01-10T08:46:04.580Z,94.23
2019-01-10T08:47:04.564Z,94.13
2019-01-10T08:48:04.548Z,93.94
2019-01-10T08:49:04.535Z,94.13
2019-01-10T08:50:04.523Z,93.56
2019-01-10T08:51:04.505Z,95.07
2019-01-10T08:52:04.486Z,94.89
2019-01-10T08:53:04.472Z,94.6
2019-01-10T08:54:04.458Z,93.37
2019-01-10T08:55:04.442Z,94.42
2019-01-10T08:56:04.435Z,94.89
2019-01-10T08:57:04.412Z,94.32
2019-01-10T08:58:04.399Z,94.23
2019-01-10T08:59:04.380Z,93.84
2019-01-10T09:00:04.365Z,94.32
2019-01-10T09:01:04.347Z,94.23
2019-01-10T09:02:04.447Z,94.32
2019-01-10T09:03:04.318Z,95.07
2019-01-10T09:04:04.307Z,95.07
2019-01-10T09:05:04.287Z,95.45
2019-01-10T09:06:10.666Z,94.7
2019-01-10T09:07:04.257Z,94.32
2019-01-10T09:08:04.246Z,94.13
2019-01-10T09:09:04.230Z,92.99
2019-01-10T09:10:04.213Z,92.43
2019-01-10T09:11:04.320Z,91.76
2019-01-10T09:12:04.180Z,92.24
2019-01-10T09:13:04.165Z,92.24
2019-01-10T09:14:04.752Z,93.46
2019-01-10T09:15:04.143Z,93.42
2019-01-10T09:16:04.344Z,94.37
2019-01-10T09:17:04.104Z,93.89
2019-01-10T09:18:04.093Z,93.32
2019-01-10T09:19:04.075Z,92.94
2019-01-10T09:20:04.067Z,92.38
2019-01-10T09:21:06.929Z,92.38
2019-01-10T09:22:04.029Z,93.42
2019-01-10T09:23:04.019Z,94.08
2019-01-10T09:24:03.999Z,94.65
2019-01-10T09:25:03.988Z,94.46
2019-01-10T09:26:03.972Z,95.31
2019-01-10T09:27:03.956Z,95.03
2019-01-10T09:28:03.940Z,95.03
2019-01-10T09:29:03.925Z,95.41
2019-01-10T09:30:03.914Z,95.79
2019-01-10T09:31:03.900Z,95.12
2019-01-10T09:32:03.881Z,96.64
2019-01-10T09:33:03.866Z,96.73
2019-01-10T09:34:03.849Z,95.31
2019-01-10T09:35:03.834Z,95.79
2019-01-10T09:36:03.820Z,95.31
2019-01-10T09:37:04.011Z,96.83
2019-01-10T09:38:03.792Z,97.68
2019-01-10T09:39:03.776Z,97.11
2019-01-10T09:40:03.769Z,97.02
2019-01-10T09:41:03.748Z,96.92
2019-01-10T09:42:03.735Z,97.02
2019-01-10T09:43:03.720Z,97.25
2019-01-10T09:44:03.704Z,97.68
2019-01-10T09:45:03.690Z,97.25
2019-01-10T09:46:03.674Z,96.4
2019-01-10T09:47:03.658Z,96.12
2019-01-10T09:48:03.649Z,95.69
2019-01-10T09:49:03.629Z,94.93
2019-01-10T09:50:03.616Z,94.84
2019-01-10T09:51:03.598Z,94.74
2019-01-10T09:52:03.586Z,98.63
2019-01-10T09:53:03.569Z,96.45
2019-01-10T09:54:03.555Z,95.79
2019-01-10T09:55:03.539Z,96.07
2019-01-10T09:56:03.526Z,97.49
2019-01-10T09:57:03.514Z,98.44
2019-01-10T09:58:03.494Z,97.68
2019-01-10T09:59:03.484Z,97.49
2019-01-10T10:00:03.227Z,97.59
2019-01-10T10:01:03.451Z,98.25
2019-01-10T10:02:03.442Z,97.68
2019-01-10T10:03:03.421Z,96.59
2019-01-10T10:04:03.408Z,95.79
2019-01-10T10:05:03.394Z,95.98
2019-01-10T10:06:10.280Z,97.3
2019-01-10T10:07:03.363Z,98.54
2019-01-10T10:08:03.349Z,97.49
2019-01-10T10:09:03.333Z,97.78
2019-01-10T10:10:03.346Z,97.11
2019-01-10T10:11:03.309Z,97.59
2019-01-10T10:12:03.290Z,96.64
2019-01-10T10:13:03.277Z,97.59
2019-01-10T10:14:03.275Z,97.3
2019-01-10T10:15:03.246Z,97.49
2019-01-10T10:16:03.229Z,97.49
2019-01-10T10:17:03.219Z,97.11
2019-01-10T10:18:03.199Z,96.17
2019-01-10T10:19:03.194Z,96.92
2019-01-10T10:20:03.169Z,96.64
2019-01-10T10:21:03.157Z,97.87
2019-01-10T10:22:03.144Z,98.35
2019-01-10T10:23:03.129Z,98.16
2019-01-10T10:24:03.116Z,98.25
2019-01-10T10:25:03.104Z,97.68
2019-01-10T10:26:03.084Z,97.59
2019-01-10T10:27:03.078Z,96.92
2019-01-10T10:28:03.056Z,96.31
2019-01-10T10:29:03.041Z,96.78
2019-01-10T10:30:03.033Z,99.99
2019-01-10T10:31:03.012Z,99.63
2019-01-10T10:32:03.092Z,99.34
2019-01-10T10:33:02.987Z,99.34
2019-01-10T10:34:02.975Z,99.15
2019-01-10T10:35:02.955Z,99.72
2019-01-10T10:36:02.946Z,98.68
2019-01-10T10:37:02.933Z,99.99
2019-01-10T10:38:02.913Z,99.58
2019-01-10T10:39:02.905Z,99.39
2019-01-10T10:40:02.886Z,99.29
2019-01-10T10:41:02.875Z,99.77
2019-01-10T10:42:02.861Z,98.72
2019-01-10T10:43:02.845Z,99.1
2019-01-10T10:44:02.830Z,99.58
2019-01-10T10:45:02.820Z,98.44
2019-01-10T10:46:04.118Z,98.06
2019-01-10T10:47:04.787Z,98.3
2019-01-10T10:48:02.784Z,99.63
2019-01-10T10:49:02.763Z,99.99
2019-01-10T10:50:02.747Z,99.82
2019-01-10T10:51:02.742Z,99.25
2019-01-10T10:52:02.718Z,99.99
2019-01-10T10:53:02.708Z,99.72
2019-01-10T10:54:02.699Z,99.99
2019-01-10T10:55:02.686Z,99.99
2019-01-10T10:56:02.666Z,99.99
2019-01-10T10:57:02.654Z,99.77
2019-01-10T10:58:02.731Z,99.58
2019-01-10T10:59:02.624Z,99.99
2019-01-10T11:00:02.710Z,99.99
2019-01-10T11:01:02.593Z,99.99
2019-01-10T11:02:02.577Z,99.99
2019-01-10T11:03:02.569Z,99.48
2019-01-10T11:04:02.555Z,99.99
2019-01-10T11:05:02.643Z,99.77
2019-01-10T11:06:02.528Z,99.67
2019-01-10T11:07:02.508Z,99.48
2019-01-10T11:08:02.497Z,99.72
2019-01-10T11:09:11.349Z,99.99
2019-01-10T11:10:02.522Z,99.99
2019-01-10T11:11:02.451Z,99.99
2019-01-10T11:12:02.439Z,99.44
2019-01-10T11:13:02.426Z,99.99
2019-01-10T11:14:02.408Z,99.99
2019-01-10T11:15:02.400Z,99.99
2019-01-10T11:16:10.176Z,99.91
2019-01-10T11:17:02.368Z,99.99
2019-01-10T11:18:02.354Z,99.99
2019-01-10T11:19:02.340Z,99.99
2019-01-10T11:20:02.326Z,99.99
2019-01-10T11:21:02.315Z,99.99
2019-01-10T11:22:02.296Z,99.99
2019-01-10T11:23:10.364Z,99.99
2019-01-10T11:24:02.275Z,99.99
2019-01-10T11:25:02.255Z,99.99
2019-01-10T11:26:02.240Z,99.99
2019-01-10T11:27:02.228Z,99.99
2019-01-10T11:28:02.217Z,99.99
2019-01-10T11:29:02.198Z,99.99
2019-01-10T11:30:02.193Z,99.91
2019-01-10T11:31:02.170Z,99.99
2019-01-10T11:32:02.157Z,99.77
2019-01-10T11:33:02.148Z,99.99
2019-01-10T11:34:02.127Z,99.99
2019-01-10T11:35:02.119Z,99.99
2019-01-10T11:36:02.104Z,99.99
2019-01-10T11:37:02.085Z,99.99
2019-01-10T11:38:02.070Z,99.99
2019-01-10T11:39:02.059Z,99.99
2019-01-10T11:40:02.042Z,99.99
2019-01-10T11:41:02.029Z,99.99
2019-01-10T11:42:02.021Z,99.99
2019-01-10T11:43:01.998Z,99.99
2019-01-10T11:44:01.985Z,99.99
2019-01-10T11:45:01.973Z,99.99
2019-01-10T11:46:01.958Z,99.99
2019-01-10T11:47:01.942Z,99.99
2019-01-10T11:48:01.929Z,99.99
2019-01-10T11:49:01.919Z,99.99
2019-01-10T11:50:01.901Z,99.99
2019-01-10T11:51:01.885Z,99.99
2019-01-10T11:52:01.870Z,99.99
2019-01-10T11:53:01.857Z,99.67
2019-01-10T11:54:01.843Z,99.99
2019-01-10T11:55:01.828Z,99.99
2019-01-10T11:56:01.817Z,99.99
2019-01-10T11:57:01.799Z,99.99
2019-01-10T11:58:01.783Z,99.99
2019-01-10T11:59:01.770Z,99.99
2019-01-10T12:00:01.763Z,99.99
2019-01-10T12:01:01.744Z,99.99
2019-01-10T12:02:01.731Z,99.99
2019-01-10T12:03:01.719Z,99.99
2019-01-10T12:04:01.703Z,99.99
2019-01-10T12:05:01.690Z,99.91
2019-01-10T12:06:01.672Z,99.99
2019-01-10T12:07:01.657Z,99.99
2019-01-10T12:08:01.644Z,99.99
2019-01-10T12:09:01.630Z,99.99
2019-01-10T12:10:01.618Z,99.63
2019-01-10T12:11:01.602Z,99.99
2019-01-10T12:12:01.589Z,99.99
2019-01-10T12:13:01.574Z,99.99
2019-01-10T12:14:01.560Z,99.99
2019-01-10T12:15:01.550Z,99.99
2019-01-10T12:16:01.532Z,99.99
2019-01-10T12:17:01.518Z,99.99
2019-01-10T12:18:01.512Z,99.99
2019-01-10T12:19:02.024Z,99.99
2019-01-10T12:20:01.476Z,99.99
2019-01-10T12:21:01.463Z,99.99
2019-01-10T12:22:01.449Z,99.99
2019-01-10T12:23:01.434Z,99.99
2019-01-10T12:24:01.421Z,99.99
2019-01-10T12:25:01.407Z,99.99
2019-01-10T12:26:01.389Z,99.99
2019-01-10T12:27:01.375Z,99.99
2019-01-10T12:28:01.362Z,99.99
2019-01-10T12:29:01.348Z,99.99
2019-01-10T12:30:01.332Z,99.99
2019-01-10T12:31:01.318Z,99.99
2019-01-10T12:32:01.304Z,99.99
2019-01-10T12:33:01.295Z,99.99
2019-01-10T12:34:01.277Z,99.99
2019-01-10T12:35:01.272Z,99.99
2019-01-10T12:36:01.250Z,99.99
2019-01-10T12:37:02.959Z,99.99
2019-01-10T12:38:01.275Z,99.99
2019-01-10T12:39:03.390Z,99.99
2019-01-10T12:40:01.389Z,99.99
2019-01-10T12:41:01.174Z,99.99
2019-01-10T12:42:01.160Z,99.99
2019-01-10T12:43:01.147Z,99.99
2019-01-10T12:44:01.130Z,99.99
2019-01-10T12:45:01.116Z,99.99
2019-01-10T12:46:01.104Z,99.99
2019-01-10T12:47:01.088Z,99.99
2019-01-10T12:48:01.666Z,99.99
2019-01-10T12:49:01.057Z,99.99
2019-01-10T12:50:01.044Z,99.99
2019-01-10T12:51:01.031Z,99.99
2019-01-10T12:52:01.014Z,99.99
2019-01-10T12:53:01.003Z,99.99
2019-01-10T12:54:00.983Z,99.99
2019-01-10T12:55:00.969Z,99.99
2019-01-10T12:56:00.953Z,99.99
2019-01-10T12:57:00.941Z,99.99
2019-01-10T12:58:00.929Z,99.99